createdAt,value
2018-12-14T00:00:37.171Z,73.24
2018-12-14T00:04:01.875Z,73.73
2018-12-14T00:07:26.549Z,74.10
2018-12-14T00:10:51.273Z,74.13
2018-12-14T00:14:15.958Z,73.53
2018-12-14T00:17:40.610Z,72.98
2018-12-14T00:21:05.329Z,72.28
2018-12-14T00:24:30.107Z,73.85
2018-12-14T00:27:54.807Z,73.42
2018-12-14T00:31:19.520Z,73.43
2018-12-14T00:34:44.271Z,72.84
2018-12-14T00:38:08.979Z,72.95
2018-12-14T00:41:33.644Z,73.25
2018-12-14T00:44:58.517Z,72.59
2018-12-14T00:48:23.174Z,72.97
2018-12-14T00:51:47.854Z,72.87
2018-12-14T00:55:12.633Z,73.47
2018-12-14T00:58:37.430Z,74.07
2018-12-14T01:02:02.130Z,74.15
2018-12-14T01:05:26.796Z,73.97
2018-12-14T01:08:51.620Z,73.80
2018-12-14T01:12:16.437Z,74.16
2018-12-14T01:15:41.167Z,74.58
2018-12-14T01:19:05.892Z,75.02
2018-12-14T01:22:30.609Z,75.53
2018-12-14T01:25:55.328Z,74.69
2018-12-14T01:29:19.999Z,74.58
2018-12-14T01:32:45.492Z,74.82
2018-12-14T01:36:10.149Z,74.21
2018-12-14T01:39:34.813Z,73.95
2018-12-14T01:42:59.502Z,74.50
2018-12-14T01:46:24.211Z,73.98
2018-12-14T01:49:48.926Z,74.00
2018-12-14T01:53:13.602Z,73.49
2018-12-14T01:56:38.409Z,73.42
2018-12-14T02:00:03.182Z,73.33
2018-12-14T02:03:27.859Z,73.83
2018-12-14T02:06:52.518Z,73.37
2018-12-14T02:10:17.245Z,73.10
2018-12-14T02:13:41.946Z,73.56
2018-12-14T02:17:06.646Z,72.73
2018-12-14T02:20:31.311Z,72.56
2018-12-14T02:23:55.991Z,73.43
2018-12-14T02:27:20.687Z,74.26
2018-12-14T02:30:46.848Z,74.59
2018-12-14T02:34:11.557Z,73.70
2018-12-14T02:37:36.260Z,74.34
2018-12-14T02:41:01.002Z,74.47
2018-12-14T02:44:25.724Z,73.84
2018-12-14T02:47:50.461Z,73.38
2018-12-14T02:51:15.099Z,72.91
2018-12-14T02:54:39.868Z,72.84
2018-12-14T02:58:04.532Z,72.41
2018-12-14T03:01:29.248Z,73.15
2018-12-14T03:04:53.935Z,73.25
2018-12-14T03:08:18.608Z,73.06
2018-12-14T03:11:43.278Z,72.70
2018-12-14T03:15:08.542Z,72.51
2018-12-14T03:18:33.243Z,72.40
2018-12-14T03:21:58.010Z,72.49
2018-12-14T03:25:22.736Z,72.81
2018-12-14T03:28:47.622Z,72.56
2018-12-14T03:32:12.423Z,73.11
2018-12-14T03:35:37.151Z,71.98
2018-12-14T03:39:01.884Z,72.27
2018-12-14T03:42:33.990Z,72.02
2018-12-14T03:45:53.338Z,71.70
2018-12-14T03:49:18.030Z,71.83
2018-12-14T03:52:42.708Z,71.57
2018-12-14T03:56:07.510Z,71.75
2018-12-14T03:59:32.183Z,71.26
2018-12-14T04:02:57.245Z,70.97
2018-12-14T04:06:21.949Z,71.88
2018-12-14T04:09:46.653Z,72.08
2018-12-14T04:13:11.440Z,72.40
2018-12-14T04:16:36.104Z,71.79
2018-12-14T04:20:00.746Z,71.93
2018-12-14T04:23:25.460Z,71.51
2018-12-14T04:26:50.141Z,70.14
2018-12-14T04:30:14.908Z,71.18
2018-12-14T04:33:39.755Z,71.49
2018-12-14T04:37:04.498Z,70.52
2018-12-14T04:40:29.195Z,70.72
2018-12-14T04:43:53.928Z,70.67
2018-12-14T04:47:18.733Z,71.74
2018-12-14T04:50:43.378Z,71.47
2018-12-14T04:54:08.045Z,70.30
2018-12-14T04:57:32.741Z,71.03
2018-12-14T05:00:57.463Z,71.52
2018-12-14T05:04:22.143Z,71.50
2018-12-14T05:07:46.872Z,70.76
2018-12-14T05:11:11.638Z,71.48
2018-12-14T05:14:36.289Z,70.57
2018-12-14T05:18:00.991Z,71.53
2018-12-14T05:21:25.699Z,71.52
2018-12-14T05:24:50.457Z,71.00
2018-12-14T05:28:15.226Z,71.01
2018-12-14T05:31:39.965Z,70.66
2018-12-14T05:35:05.078Z,71.23
2018-12-14T05:38:29.838Z,71.06
2018-12-14T05:41:54.585Z,71.27
2018-12-14T05:45:19.372Z,71.28
2018-12-14T05:48:44.108Z,71.38
2018-12-14T05:52:08.786Z,70.91
2018-12-14T05:55:33.475Z,70.88
2018-12-14T05:59:07.313Z,71.13
2018-12-14T06:02:31.976Z,71.05
2018-12-14T06:05:56.689Z,70.59
2018-12-14T06:09:21.380Z,69.96
2018-12-14T06:12:46.323Z,69.79
2018-12-14T06:16:11.047Z,70.65
2018-12-14T06:19:35.706Z,69.81
2018-12-14T06:23:00.341Z,70.27
2018-12-14T06:26:25.736Z,69.57
2018-12-14T06:29:51.472Z,70.27
2018-12-14T06:33:16.158Z,70.49
2018-12-14T06:36:40.886Z,70.28
2018-12-14T06:40:05.998Z,70.28
2018-12-14T06:43:30.682Z,70.38
2018-12-14T06:46:55.319Z,70.29
2018-12-14T06:50:20.048Z,70.19
2018-12-14T06:53:44.790Z,69.71
2018-12-14T06:57:09.684Z,70.41
2018-12-14T07:00:34.632Z,70.08
2018-12-14T07:03:59.302Z,70.12
2018-12-14T07:07:24.001Z,69.39
2018-12-14T07:10:48.696Z,69.59
2018-12-14T07:14:13.385Z,68.68
2018-12-14T07:17:38.044Z,69.65
2018-12-14T07:21:02.906Z,69.35
2018-12-14T07:24:27.676Z,69.72
2018-12-14T07:27:52.393Z,69.40
2018-12-14T07:31:17.080Z,69.54
2018-12-14T07:34:41.733Z,69.40
2018-12-14T07:38:06.400Z,69.61
2018-12-14T07:41:31.074Z,69.21
2018-12-14T07:44:56.035Z,69.40
2018-12-14T07:48:20.883Z,69.14
2018-12-14T07:51:45.624Z,69.49
2018-12-14T07:55:10.299Z,68.89
2018-12-14T07:58:36.109Z,69.23
2018-12-14T08:02:00.809Z,69.08
2018-12-14T08:05:25.578Z,69.17
2018-12-14T08:08:50.297Z,70.12
2018-12-14T08:12:14.949Z,69.37
2018-12-14T08:15:39.641Z,69.16
2018-12-14T08:19:04.310Z,69.11
2018-12-14T08:22:29.054Z,69.49
2018-12-14T08:25:53.695Z,69.36
2018-12-14T08:29:18.331Z,68.35
2018-12-14T08:32:43.035Z,69.40
2018-12-14T08:36:07.736Z,69.06
2018-12-14T08:39:32.405Z,69.00
2018-12-14T08:42:57.049Z,68.98
2018-12-14T08:46:21.699Z,68.47
2018-12-14T08:49:46.351Z,68.16
2018-12-14T08:53:11.407Z,68.60
2018-12-14T08:56:36.092Z,68.24
2018-12-14T09:00:00.809Z,67.80
2018-12-14T09:03:25.515Z,67.47
2018-12-14T09:06:50.226Z,68.03
2018-12-14T09:10:17.071Z,67.74
2018-12-14T09:13:47.687Z,68.00
2018-12-14T09:17:08.960Z,67.87
2018-12-14T09:20:33.686Z,67.68
2018-12-14T09:23:58.379Z,66.29
2018-12-14T09:27:23.288Z,67.18
2018-12-14T09:30:48.008Z,67.11
2018-12-14T09:34:12.697Z,66.91
2018-12-14T09:37:37.443Z,66.27
2018-12-14T09:41:02.107Z,65.97
2018-12-14T09:44:26.800Z,66.41
2018-12-14T09:47:51.527Z,65.96
2018-12-14T09:51:16.282Z,65.70
2018-12-14T09:54:41.037Z,65.44
2018-12-14T10:01:42.384Z,65.34
2018-12-14T10:05:09.269Z,66.07
2018-12-14T10:08:34.063Z,65.70
2018-12-14T10:11:58.990Z,65.76
2018-12-14T10:15:34.294Z,65.69
2018-12-14T10:18:59.618Z,64.71
2018-12-14T10:22:24.586Z,65.98
2018-12-14T10:25:49.341Z,65.37
2018-12-14T10:29:14.232Z,64.07
2018-12-14T10:32:39.125Z,65.09
2018-12-14T10:36:03.848Z,65.48
2018-12-14T10:39:29.637Z,65.10
2018-12-14T10:42:54.309Z,63.67
2018-12-14T10:46:19.017Z,63.65
2018-12-14T10:49:43.754Z,63.36
2018-12-14T10:53:12.601Z,63.96
2018-12-14T10:56:37.395Z,63.38
2018-12-14T11:00:02.054Z,63.21
2018-12-14T11:03:26.773Z,61.66
2018-12-14T11:06:51.543Z,64.26
2018-12-14T11:10:16.295Z,62.72
2018-12-14T11:13:41.057Z,63.44
2018-12-14T11:17:05.863Z,62.97
2018-12-14T11:20:30.586Z,62.82
2018-12-14T11:23:55.318Z,62.50
2018-12-14T11:27:20.023Z,61.16
2018-12-14T11:30:44.807Z,62.88
2018-12-14T11:34:09.463Z,61.52
2018-12-14T11:37:34.219Z,61.68
2018-12-14T11:40:59.029Z,61.20
2018-12-14T11:44:23.726Z,61.75
2018-12-14T11:47:49.146Z,61.18
2018-12-14T11:51:18.642Z,61.90
2018-12-14T11:54:43.645Z,62.40
2018-12-14T11:58:08.466Z,61.83
2018-12-14T12:01:33.987Z,60.61
2018-12-14T12:04:59.592Z,61.52
2018-12-14T12:08:25.440Z,61.05
2018-12-14T12:11:50.081Z,61.94
2018-12-14T12:15:14.793Z,61.36
2018-12-14T12:18:39.479Z,62.45
2018-12-14T12:22:04.120Z,59.49
2018-12-14T12:25:28.886Z,60.99
2018-12-14T12:28:53.598Z,60.43
2018-12-14T12:32:18.259Z,61.27
2018-12-14T12:35:43.147Z,59.65
2018-12-14T12:39:10.317Z,59.59
2018-12-14T12:42:35.271Z,60.75
2018-12-14T12:46:01.081Z,59.67
2018-12-14T12:49:25.963Z,60.05
2018-12-14T12:52:50.727Z,59.72
2018-12-14T12:56:15.737Z,59.21
2018-12-14T12:59:40.584Z,59.86
2018-12-14T13:03:06.279Z,58.94
2018-12-14T13:06:30.964Z,59.30
2018-12-14T13:09:55.761Z,58.90
2018-12-14T13:13:20.441Z,60.47
2018-12-14T13:16:45.113Z,59.57
2018-12-14T13:20:09.863Z,59.86
2018-12-14T13:23:34.583Z,60.32
2018-12-14T13:26:59.280Z,60.25
2018-12-14T13:30:23.954Z,59.66
2018-12-14T13:33:48.696Z,60.33
2018-12-14T13:37:13.516Z,60.12
2018-12-14T13:40:38.213Z,60.16
2018-12-14T13:44:09.204Z,59.99
2018-12-14T13:47:33.919Z,59.86
2018-12-14T13:50:58.579Z,61.02
2018-12-14T13:54:23.274Z,60.93
2018-12-14T13:57:47.932Z,60.66
2018-12-14T14:01:12.642Z,60.64
2018-12-14T14:04:37.338Z,60.46
2018-12-14T14:08:02.043Z,61.96
2018-12-14T14:11:26.755Z,61.48
2018-12-14T14:14:53.124Z,61.00
2018-12-14T14:18:17.911Z,60.70
2018-12-14T14:21:43.297Z,60.53
2018-12-14T14:25:08.206Z,61.80
2018-12-14T14:28:32.947Z,61.61
2018-12-14T14:31:57.718Z,61.75
2018-12-14T14:35:22.466Z,62.20
2018-12-14T14:38:47.232Z,61.65
2018-12-14T14:42:11.948Z,61.29
2018-12-14T14:45:36.700Z,62.14
2018-12-14T14:49:01.517Z,62.38
2018-12-14T14:52:26.271Z,61.90
2018-12-14T14:55:52.404Z,62.25
2018-12-14T14:59:17.093Z,62.44
2018-12-14T15:02:41.758Z,62.73
2018-12-14T15:06:06.465Z,63.06
2018-12-14T15:09:31.150Z,62.64
2018-12-14T15:12:55.790Z,63.30
2018-12-14T15:16:20.474Z,61.84
2018-12-14T15:19:45.160Z,62.40
2018-12-14T15:23:09.889Z,63.88
2018-12-14T15:26:34.553Z,63.87
2018-12-14T15:29:59.189Z,62.31
2018-12-14T15:33:23.928Z,62.15
2018-12-14T15:36:48.625Z,63.02
2018-12-14T15:40:14.391Z,62.59
2018-12-14T15:43:39.191Z,62.92
2018-12-14T15:47:03.876Z,62.69
2018-12-14T15:50:28.676Z,63.30
2018-12-14T15:53:53.398Z,64.25
2018-12-14T15:57:18.094Z,63.72
2018-12-14T16:00:42.831Z,63.60
2018-12-14T16:04:07.571Z,64.13
2018-12-14T16:07:32.601Z,63.35
2018-12-14T16:10:57.327Z,63.14
2018-12-14T16:14:22.074Z,64.19
2018-12-14T16:17:47.005Z,63.70
2018-12-14T16:21:11.743Z,63.26
2018-12-14T16:24:36.510Z,63.04
2018-12-14T16:28:01.431Z,63.33
2018-12-14T16:31:26.140Z,62.90
2018-12-14T16:34:50.932Z,62.85
2018-12-14T16:38:15.674Z,63.40
2018-12-14T16:41:40.560Z,63.10
2018-12-14T16:45:06.041Z,62.92
2018-12-14T16:48:30.758Z,62.89
2018-12-14T16:51:55.433Z,62.93
2018-12-14T16:55:20.135Z,64.09
2018-12-14T16:58:44.819Z,63.44
2018-12-14T17:02:09.845Z,63.75
2018-12-14T17:05:34.595Z,62.93
2018-12-14T17:08:59.319Z,63.48
2018-12-14T17:12:24.007Z,63.01
2018-12-14T17:15:48.677Z,63.56
2018-12-14T17:19:13.402Z,64.07
2018-12-14T17:22:38.084Z,73.13
2018-12-14T17:26:02.887Z,67.27
2018-12-14T17:29:27.609Z,58.35
2018-12-14T17:32:52.290Z,60.45
2018-12-14T17:36:16.999Z,61.59
2018-12-14T17:39:41.709Z,62.03
2018-12-14T17:43:06.450Z,62.68
2018-12-14T17:46:31.186Z,62.40
2018-12-14T17:49:56.581Z,62.47
2018-12-14T17:53:22.147Z,62.83
2018-12-14T17:56:48.627Z,63.94
2018-12-14T18:00:16.139Z,63.39
2018-12-14T18:03:40.997Z,63.02
2018-12-14T18:07:05.817Z,63.02
2018-12-14T18:10:30.562Z,61.64
2018-12-14T18:14:09.586Z,62.84
2018-12-14T18:21:40.212Z,61.48
2018-12-14T18:25:10.916Z,63.55
2018-12-14T18:28:40.317Z,61.88
2018-12-14T18:32:07.003Z,64.08
2018-12-14T18:35:32.516Z,63.75
2018-12-14T18:38:57.153Z,62.74
2018-12-14T18:42:21.901Z,62.83
2018-12-14T18:45:52.936Z,63.14
2018-12-14T18:49:14.497Z,62.87
2018-12-14T18:52:39.256Z,62.85
2018-12-14T18:56:03.935Z,61.69
2018-12-14T18:59:28.946Z,62.73
2018-12-14T19:02:53.900Z,62.55
2018-12-14T19:06:18.645Z,63.12
2018-12-14T19:09:43.438Z,63.01
2018-12-14T19:13:08.269Z,63.16
2018-12-14T19:16:32.995Z,64.42
2018-12-14T19:19:57.704Z,63.72
2018-12-14T19:23:22.509Z,63.29
2018-12-14T19:26:47.233Z,63.77
2018-12-14T19:30:12.043Z,63.98
2018-12-14T19:33:37.489Z,63.71
2018-12-14T19:37:03.252Z,63.83
2018-12-14T19:40:29.089Z,63.88
2018-12-14T19:43:53.856Z,64.02
2018-12-14T19:47:19.910Z,63.34
2018-12-14T19:50:44.576Z,62.66
2018-12-14T19:54:09.348Z,63.36
2018-12-14T19:57:34.082Z,62.73
2018-12-14T20:00:58.820Z,62.28
2018-12-14T20:04:23.575Z,62.34
2018-12-14T20:07:50.488Z,62.79
2018-12-14T20:11:15.221Z,62.49
2018-12-14T20:14:40.010Z,62.76
2018-12-14T20:18:04.736Z,64.67
2018-12-14T20:21:29.431Z,64.64
2018-12-14T20:24:54.148Z,64.10
2018-12-14T20:28:18.881Z,64.11
2018-12-14T20:31:43.751Z,63.21
2018-12-14T20:35:08.993Z,62.63
2018-12-14T20:38:33.723Z,60.49
2018-12-14T20:41:58.559Z,59.88
2018-12-14T20:45:23.361Z,57.60
2018-12-14T20:48:48.080Z,57.30
2018-12-14T20:52:12.938Z,55.63
2018-12-14T20:55:37.834Z,54.95
2018-12-14T20:59:02.562Z,54.88
2018-12-14T21:02:27.430Z,56.62
2018-12-14T21:05:52.260Z,55.41
2018-12-14T21:09:17.126Z,54.13
2018-12-14T21:12:41.899Z,52.33
2018-12-14T21:16:06.710Z,52.03
2018-12-14T21:19:31.455Z,50.99
2018-12-14T21:22:56.113Z,50.92
2018-12-14T21:26:20.769Z,51.31
2018-12-14T21:29:45.460Z,52.40
2018-12-14T21:33:10.120Z,51.54
2018-12-14T21:36:34.854Z,50.92
2018-12-14T21:39:59.573Z,50.62
2018-12-14T21:43:24.320Z,50.93
2018-12-14T21:46:49.085Z,51.80
2018-12-14T21:50:13.772Z,50.59
2018-12-14T21:53:38.626Z,50.26
2018-12-14T21:57:03.422Z,50.32
2018-12-14T22:00:28.328Z,51.63
2018-12-14T22:03:53.202Z,50.92
2018-12-14T22:07:17.918Z,50.10
2018-12-14T22:10:42.670Z,50.03
2018-12-14T22:14:07.453Z,50.67
2018-12-14T22:17:32.154Z,50.00
2018-12-14T22:20:56.803Z,50.61
2018-12-14T22:24:21.440Z,49.91
2018-12-14T22:27:46.687Z,49.94
2018-12-14T22:31:11.356Z,49.54
2018-12-14T22:34:35.983Z,49.02
2018-12-14T22:38:00.766Z,49.30
2018-12-14T22:41:25.575Z,50.35
2018-12-14T22:44:50.289Z,49.13
2018-12-14T22:48:15.039Z,49.60
2018-12-14T22:51:39.780Z,49.57
2018-12-14T22:55:04.906Z,51.19
2018-12-14T22:58:29.533Z,50.46
2018-12-14T23:01:54.240Z,50.57
2018-12-14T23:05:19.054Z,50.18
2018-12-14T23:08:44.395Z,49.25
2018-12-14T23:12:09.080Z,49.75
2018-12-14T23:15:33.845Z,50.00
2018-12-14T23:18:58.552Z,50.67
2018-12-14T23:22:23.226Z,50.32
2018-12-14T23:25:48.578Z,49.98
2018-12-14T23:32:48.365Z,50.41
2018-12-14T23:36:13.154Z,51.93
2018-12-14T23:39:37.953Z,50.04
2018-12-14T23:43:02.791Z,50.61
2018-12-14T23:46:27.600Z,50.34
2018-12-14T23:49:52.303Z,50.65
2018-12-14T23:53:17.037Z,51.64
2018-12-14T23:56:41.701Z,50.23
